sensor_id;sensor_type;location;lat;lon;timestamp;P1;durP1;ratioP1;P2;durP2;ratioP2
1320;SDS011;653;51.480;11.992;2023-02-28T00:01:30;4.23;;;3.83;;
1320;SDS011;653;51.480;11.992;2023-02-28T00:03:57;4.90;;;3.57;;
1320;SDS011;653;51.480;11.992;2023-02-28T00:06:24;4.80;;;3.70;;
1320;SDS011;653;51.480;11.992;2023-02-28T00:08:51;5.03;;;3.80;;
1320;SDS011;653;51.480;11.992;2023-02-28T00:11:18;4.23;;;3.03;;
1320;SDS011;653;51.480;11.992;2023-02-28T00:13:44;6.20;;;3.53;;
1320;SDS011;653;51.480;11.992;2023-02-28T00:16:16;4.67;;;3.53;;
1320;SDS011;653;51.480;11.992;2023-02-28T00:18:57;3.73;;;3.40;;
1320;SDS011;653;51.480;11.992;2023-02-28T00:21:24;4.47;;;3.43;;
1320;SDS011;653;51.480;11.992;2023-02-28T00:23:51;5.80;;;4.10;;
1320;SDS011;653;51.480;11.992;2023-02-28T00:26:17;4.10;;;3.20;;
1320;SDS011;653;51.480;11.992;2023-02-28T00:28:42;4.90;;;3.63;;
1320;SDS011;653;51.480;11.992;2023-02-28T00:31:08;4.27;;;3.23;;
1320;SDS011;653;51.480;11.992;2023-02-28T00:33:33;4.17;;;3.43;;
1320;SDS011;653;51.480;11.992;2023-02-28T00:36:08;4.20;;;3.80;;
1320;SDS011;653;51.480;11.992;2023-02-28T00:38:34;7.33;;;3.70;;
1320;SDS011;653;51.480;11.992;2023-02-28T00:41:01;7.53;;;3.23;;
1320;SDS011;653;51.480;11.992;2023-02-28T00:43:31;5.70;;;4.17;;
1320;SDS011;653;51.480;11.992;2023-02-28T00:45:58;4.60;;;3.83;;
1320;SDS011;653;51.480;11.992;2023-02-28T00:48:25;4.87;;;3.80;;
1320;SDS011;653;51.480;11.992;2023-02-28T00:50:52;4.47;;;3.80;;
1320;SDS011;653;51.480;11.992;2023-02-28T00:53:17;8.13;;;3.80;;
1320;SDS011;653;51.480;11.992;2023-02-28T00:55:44;5.57;;;3.30;;
1320;SDS011;653;51.480;11.992;2023-02-28T00:58:10;6.83;;;3.80;;
1320;SDS011;653;51.480;11.992;2023-02-28T01:00:37;6.30;;;3.97;;
1320;SDS011;653;51.480;11.992;2023-02-28T01:03:03;4.27;;;3.20;;
1320;SDS011;653;51.480;11.992;2023-02-28T01:05:29;6.47;;;4.50;;
1320;SDS011;653;51.480;11.992;2023-02-28T01:07:56;5.00;;;3.30;;
1320;SDS011;653;51.480;11.992;2023-02-28T01:10:23;5.07;;;4.30;;
1320;SDS011;653;51.480;11.992;2023-02-28T01:12:49;5.27;;;3.53;;
1320;SDS011;653;51.480;11.992;2023-02-28T01:15:18;5.80;;;3.97;;
1320;SDS011;653;51.480;11.992;2023-02-28T01:17:43;4.23;;;3.50;;
1320;SDS011;653;51.480;11.992;2023-02-28T01:20:10;6.87;;;4.10;;
1320;SDS011;653;51.480;11.992;2023-02-28T01:22:37;5.30;;;3.30;;
1320;SDS011;653;51.480;11.992;2023-02-28T01:25:03;6.83;;;4.17;;
1320;SDS011;653;51.480;11.992;2023-02-28T01:27:29;5.73;;;3.90;;
1320;SDS011;653;51.480;11.992;2023-02-28T01:29:56;5.47;;;3.80;;
1320;SDS011;653;51.480;11.992;2023-02-28T01:32:22;4.27;;;3.73;;
1320;SDS011;653;51.480;11.992;2023-02-28T01:34:47;4.57;;;3.93;;
1320;SDS011;653;51.480;11.992;2023-02-28T01:37:15;8.63;;;4.40;;
1320;SDS011;653;51.480;11.992;2023-02-28T01:39:42;4.13;;;3.60;;
1320;SDS011;653;51.480;11.992;2023-02-28T01:42:09;6.20;;;3.20;;
1320;SDS011;653;51.480;11.992;2023-02-28T01:47:40;4.47;;;3.40;;
1320;SDS011;653;51.480;11.992;2023-02-28T01:50:09;4.70;;;3.20;;
1320;SDS011;653;51.480;11.992;2023-02-28T01:52:41;5.97;;;3.53;;
1320;SDS011;653;51.480;11.992;2023-02-28T01:55:08;5.00;;;3.63;;
1320;SDS011;653;51.480;11.992;2023-02-28T01:57:43;6.10;;;3.40;;
1320;SDS011;653;51.480;11.992;2023-02-28T02:00:13;5.83;;;3.50;;
1320;SDS011;653;51.480;11.992;2023-02-28T02:02:43;5.23;;;3.40;;
1320;SDS011;653;51.480;11.992;2023-02-28T02:05:12;4.40;;;3.50;;
1320;SDS011;653;51.480;11.992;2023-02-28T02:07:40;4.60;;;3.10;;
1320;SDS011;653;51.480;11.992;2023-02-28T02:10:14;4.80;;;2.67;;
1320;SDS011;653;51.480;11.992;2023-02-28T02:18:02;6.37;;;2.90;;
1320;SDS011;653;51.480;11.992;2023-02-28T02:21:10;5.03;;;2.93;;
1320;SDS011;653;51.480;11.992;2023-02-28T02:32:35;4.07;;;2.57;;
1320;SDS011;653;51.480;11.992;2023-02-28T02:40:29;4.40;;;3.07;;
1320;SDS011;653;51.480;11.992;2023-02-28T02:43:01;3.27;;;2.83;;
1320;SDS011;653;51.480;11.992;2023-02-28T02:45:32;8.00;;;3.20;;
1320;SDS011;653;51.480;11.992;2023-02-28T02:48:06;4.13;;;2.70;;
1320;SDS011;653;51.480;11.992;2023-02-28T02:50:43;4.00;;;2.90;;
1320;SDS011;653;51.480;11.992;2023-02-28T02:53:12;4.17;;;3.07;;
1320;SDS011;653;51.480;11.992;2023-02-28T02:55:40;3.07;;;2.50;;
1320;SDS011;653;51.480;11.992;2023-02-28T02:58:10;4.10;;;2.77;;
1320;SDS011;653;51.480;11.992;2023-02-28T03:00:40;4.70;;;3.33;;
1320;SDS011;653;51.480;11.992;2023-02-28T03:03:10;3.67;;;3.00;;
1320;SDS011;653;51.480;11.992;2023-02-28T03:05:47;6.00;;;3.13;;
1320;SDS011;653;51.480;11.992;2023-02-28T03:08:15;4.00;;;3.00;;
1320;SDS011;653;51.480;11.992;2023-02-28T03:10:45;5.20;;;2.90;;
1320;SDS011;653;51.480;11.992;2023-02-28T03:13:15;3.40;;;2.43;;
1320;SDS011;653;51.480;11.992;2023-02-28T03:30:49;6.73;;;3.50;;
1320;SDS011;653;51.480;11.992;2023-02-28T03:33:32;4.03;;;2.87;;
1320;SDS011;653;51.480;11.992;2023-02-28T03:36:06;3.47;;;2.50;;
1320;SDS011;653;51.480;11.992;2023-02-28T03:38:36;5.13;;;3.53;;
1320;SDS011;653;51.480;11.992;2023-02-28T03:41:16;5.37;;;3.77;;
1320;SDS011;653;51.480;11.992;2023-02-28T03:43:51;3.90;;;3.30;;
1320;SDS011;653;51.480;11.992;2023-02-28T03:46:24;4.00;;;2.80;;
1320;SDS011;653;51.480;11.992;2023-02-28T03:49:01;4.37;;;3.23;;
1320;SDS011;653;51.480;11.992;2023-02-28T03:51:29;4.93;;;3.13;;
1320;SDS011;653;51.480;11.992;2023-02-28T03:54:01;3.97;;;2.73;;
1320;SDS011;653;51.480;11.992;2023-02-28T03:56:43;4.70;;;2.77;;
1320;SDS011;653;51.480;11.992;2023-02-28T03:59:35;7.73;;;3.00;;
1320;SDS011;653;51.480;11.992;2023-02-28T04:02:04;4.90;;;3.37;;
1320;SDS011;653;51.480;11.992;2023-02-28T04:04:29;4.10;;;3.20;;
1320;SDS011;653;51.480;11.992;2023-02-28T04:07:07;4.63;;;3.10;;
1320;SDS011;653;51.480;11.992;2023-02-28T04:09:35;4.30;;;2.90;;
1320;SDS011;653;51.480;11.992;2023-02-28T04:12:02;3.67;;;2.80;;
1320;SDS011;653;51.480;11.992;2023-02-28T04:14:29;5.33;;;3.40;;
1320;SDS011;653;51.480;11.992;2023-02-28T04:16:56;4.17;;;3.07;;
1320;SDS011;653;51.480;11.992;2023-02-28T04:19:23;5.10;;;2.77;;
1320;SDS011;653;51.480;11.992;2023-02-28T04:21:51;7.83;;;3.20;;
1320;SDS011;653;51.480;11.992;2023-02-28T04:24:18;8.43;;;3.43;;
1320;SDS011;653;51.480;11.992;2023-02-28T04:26:47;5.17;;;3.37;;
1320;SDS011;653;51.480;11.992;2023-02-28T04:29:25;4.47;;;3.70;;
1320;SDS011;653;51.480;11.992;2023-02-28T04:32:02;5.10;;;3.10;;
1320;SDS011;653;51.480;11.992;2023-02-28T04:34:28;4.63;;;2.97;;
1320;SDS011;653;51.480;11.992;2023-02-28T04:36:56;4.30;;;3.20;;
1320;SDS011;653;51.480;11.992;2023-02-28T04:39:23;8.80;;;3.63;;
1320;SDS011;653;51.480;11.992;2023-02-28T04:41:49;7.63;;;3.40;;
1320;SDS011;653;51.480;11.992;2023-02-28T04:44:17;4.47;;;3.80;;
1320;SDS011;653;51.480;11.992;2023-02-28T04:46:43;4.53;;;3.33;;
1320;SDS011;653;51.480;11.992;2023-02-28T04:49:11;5.27;;;2.70;;
1320;SDS011;653;51.480;11.992;2023-02-28T04:51:38;4.60;;;3.87;;
1320;SDS011;653;51.480;11.992;2023-02-28T04:54:05;5.60;;;3.70;;
1320;SDS011;653;51.480;11.992;2023-02-28T04:56:32;5.07;;;3.20;;
1320;SDS011;653;51.480;11.992;2023-02-28T04:58:58;4.20;;;3.17;;
1320;SDS011;653;51.480;11.992;2023-02-28T05:01:32;4.17;;;2.97;;
1320;SDS011;653;51.480;11.992;2023-02-28T05:04:00;3.83;;;2.90;;
1320;SDS011;653;51.480;11.992;2023-02-28T05:06:30;5.10;;;3.50;;
1320;SDS011;653;51.480;11.992;2023-02-28T05:08:57;3.60;;;3.03;;
1320;SDS011;653;51.480;11.992;2023-02-28T05:11:31;5.13;;;3.83;;
1320;SDS011;653;51.480;11.992;2023-02-28T05:14:06;4.60;;;3.23;;
1320;SDS011;653;51.480;11.992;2023-02-28T05:16:34;8.00;;;3.80;;
1320;SDS011;653;51.480;11.992;2023-02-28T05:19:01;7.13;;;3.97;;
1320;SDS011;653;51.480;11.992;2023-02-28T05:21:34;5.37;;;3.77;;
1320;SDS011;653;51.480;11.992;2023-02-28T05:24:06;4.00;;;3.60;;
1320;SDS011;653;51.480;11.992;2023-02-28T05:26:37;7.40;;;3.90;;
1320;SDS011;653;51.480;11.992;2023-02-28T05:29:05;5.30;;;3.20;;
1320;SDS011;653;51.480;11.992;2023-02-28T05:31:30;4.10;;;3.03;;
1320;SDS011;653;51.480;11.992;2023-02-28T05:33:57;4.27;;;3.63;;
1320;SDS011;653;51.480;11.992;2023-02-28T05:36:23;5.70;;;3.87;;
1320;SDS011;653;51.480;11.992;2023-02-28T05:38:50;5.80;;;3.60;;
1320;SDS011;653;51.480;11.992;2023-02-28T05:41:17;4.57;;;3.80;;
1320;SDS011;653;51.480;11.992;2023-02-28T05:43:46;5.83;;;4.40;;
1320;SDS011;653;51.480;11.992;2023-02-28T05:46:13;6.30;;;4.73;;
1320;SDS011;653;51.480;11.992;2023-02-28T05:48:41;5.00;;;4.10;;
1320;SDS011;653;51.480;11.992;2023-02-28T05:51:07;7.07;;;5.47;;
1320;SDS011;653;51.480;11.992;2023-02-28T05:53:34;8.17;;;4.93;;
1320;SDS011;653;51.480;11.992;2023-02-28T05:56:01;8.70;;;4.77;;
1320;SDS011;653;51.480;11.992;2023-02-28T05:58:28;5.17;;;4.40;;
1320;SDS011;653;51.480;11.992;2023-02-28T06:00:58;7.60;;;5.30;;
1320;SDS011;653;51.480;11.992;2023-02-28T06:03:24;6.27;;;4.80;;
1320;SDS011;653;51.480;11.992;2023-02-28T06:05:49;6.40;;;4.20;;
1320;SDS011;653;51.480;11.992;2023-02-28T06:08:17;5.60;;;4.70;;
1320;SDS011;653;51.480;11.992;2023-02-28T06:10:47;6.23;;;5.20;;
1320;SDS011;653;51.480;11.992;2023-02-28T06:13:13;8.30;;;5.33;;
1320;SDS011;653;51.480;11.992;2023-02-28T06:15:40;6.43;;;4.27;;
1320;SDS011;653;51.480;11.992;2023-02-28T06:18:07;5.03;;;4.50;;
1320;SDS011;653;51.480;11.992;2023-02-28T06:20:33;5.73;;;4.60;;
1320;SDS011;653;51.480;11.992;2023-02-28T06:23:01;4.93;;;4.37;;
1320;SDS011;653;51.480;11.992;2023-02-28T06:25:30;5.50;;;4.10;;
1320;SDS011;653;51.480;11.992;2023-02-28T06:27:57;4.43;;;4.03;;
1320;SDS011;653;51.480;11.992;2023-02-28T06:30:24;6.10;;;4.70;;
1320;SDS011;653;51.480;11.992;2023-02-28T06:32:53;8.13;;;5.03;;
1320;SDS011;653;51.480;11.992;2023-02-28T06:35:20;8.13;;;3.80;;
1320;SDS011;653;51.480;11.992;2023-02-28T06:37:47;6.63;;;4.60;;
1320;SDS011;653;51.480;11.992;2023-02-28T06:40:12;8.37;;;5.83;;
1320;SDS011;653;51.480;11.992;2023-02-28T06:42:39;7.67;;;4.70;;
1320;SDS011;653;51.480;11.992;2023-02-28T06:45:05;7.33;;;4.87;;
1320;SDS011;653;51.480;11.992;2023-02-28T06:47:36;8.50;;;5.07;;
1320;SDS011;653;51.480;11.992;2023-02-28T06:50:04;11.87;;;6.53;;
1320;SDS011;653;51.480;11.992;2023-02-28T06:52:32;8.80;;;6.73;;
1320;SDS011;653;51.480;11.992;2023-02-28T06:54:58;10.00;;;7.10;;
1320;SDS011;653;51.480;11.992;2023-02-28T06:57:28;11.43;;;7.23;;
1320;SDS011;653;51.480;11.992;2023-02-28T07:00:01;12.70;;;6.40;;
1320;SDS011;653;51.480;11.992;2023-02-28T07:02:31;8.07;;;5.93;;
1320;SDS011;653;51.480;11.992;2023-02-28T07:04:58;9.03;;;6.90;;
1320;SDS011;653;51.480;11.992;2023-02-28T07:07:23;10.70;;;5.70;;
1320;SDS011;653;51.480;11.992;2023-02-28T07:09:48;10.47;;;7.33;;
1320;SDS011;653;51.480;11.992;2023-02-28T07:12:15;11.30;;;7.40;;
1320;SDS011;653;51.480;11.992;2023-02-28T07:14:42;10.27;;;8.43;;
1320;SDS011;653;51.480;11.992;2023-02-28T07:17:09;10.83;;;7.37;;
1320;SDS011;653;51.480;11.992;2023-02-28T07:19:38;7.57;;;5.90;;
1320;SDS011;653;51.480;11.992;2023-02-28T07:22:05;9.37;;;5.37;;
1320;SDS011;653;51.480;11.992;2023-02-28T07:24:31;11.03;;;5.70;;
1320;SDS011;653;51.480;11.992;2023-02-28T07:26:58;6.53;;;4.90;;
1320;SDS011;653;51.480;11.992;2023-02-28T07:29:24;6.90;;;4.77;;
1320;SDS011;653;51.480;11.992;2023-02-28T07:31:50;6.83;;;5.60;;
1320;SDS011;653;51.480;11.992;2023-02-28T07:34:19;6.27;;;4.73;;
1320;SDS011;653;51.480;11.992;2023-02-28T07:36:47;6.93;;;5.13;;
1320;SDS011;653;51.480;11.992;2023-02-28T07:39:14;6.20;;;5.00;;
1320;SDS011;653;51.480;11.992;2023-02-28T07:41:39;7.67;;;5.53;;
1320;SDS011;653;51.480;11.992;2023-02-28T07:44:10;11.43;;;6.23;;
1320;SDS011;653;51.480;11.992;2023-02-28T07:46:37;8.40;;;6.17;;
1320;SDS011;653;51.480;11.992;2023-02-28T07:49:04;5.50;;;4.47;;
1320;SDS011;653;51.480;11.992;2023-02-28T07:51:32;7.20;;;5.27;;
1320;SDS011;653;51.480;11.992;2023-02-28T07:53:59;12.20;;;5.90;;
1320;SDS011;653;51.480;11.992;2023-02-28T07:56:24;7.77;;;5.80;;
1320;SDS011;653;51.480;11.992;2023-02-28T07:58:51;6.93;;;5.23;;
1320;SDS011;653;51.480;11.992;2023-02-28T08:01:16;7.00;;;5.27;;
1320;SDS011;653;51.480;11.992;2023-02-28T08:03:45;7.50;;;4.90;;
1320;SDS011;653;51.480;11.992;2023-02-28T08:06:16;8.43;;;5.83;;
1320;SDS011;653;51.480;11.992;2023-02-28T08:08:44;8.77;;;5.13;;
1320;SDS011;653;51.480;11.992;2023-02-28T08:11:11;6.57;;;4.77;;
1320;SDS011;653;51.480;11.992;2023-02-28T08:13:37;8.47;;;4.70;;
1320;SDS011;653;51.480;11.992;2023-02-28T08:16:02;9.07;;;5.37;;
1320;SDS011;653;51.480;11.992;2023-02-28T08:18:29;9.87;;;5.10;;
1320;SDS011;653;51.480;11.992;2023-02-28T08:20:56;9.03;;;5.80;;
1320;SDS011;653;51.480;11.992;2023-02-28T08:23:23;7.30;;;4.73;;
1320;SDS011;653;51.480;11.992;2023-02-28T08:25:54;10.90;;;4.90;;
1320;SDS011;653;51.480;11.992;2023-02-28T08:28:22;10.40;;;5.17;;
1320;SDS011;653;51.480;11.992;2023-02-28T08:30:49;7.83;;;5.10;;
1320;SDS011;653;51.480;11.992;2023-02-28T08:33:16;8.33;;;5.67;;
1320;SDS011;653;51.480;11.992;2023-02-28T08:35:42;5.63;;;5.00;;
1320;SDS011;653;51.480;11.992;2023-02-28T08:38:09;11.00;;;5.20;;
1320;SDS011;653;51.480;11.992;2023-02-28T08:40:36;9.17;;;4.90;;
1320;SDS011;653;51.480;11.992;2023-02-28T08:43:02;8.40;;;5.10;;
1320;SDS011;653;51.480;11.992;2023-02-28T08:45:29;8.20;;;5.10;;
1320;SDS011;653;51.480;11.992;2023-02-28T08:47:55;7.17;;;5.50;;
1320;SDS011;653;51.480;11.992;2023-02-28T08:50:21;7.80;;;5.00;;
1320;SDS011;653;51.480;11.992;2023-02-28T08:52:47;8.53;;;5.80;;
1320;SDS011;653;51.480;11.992;2023-02-28T08:55:12;6.67;;;5.13;;
1320;SDS011;653;51.480;11.992;2023-02-28T08:57:39;5.17;;;4.17;;
1320;SDS011;653;51.480;11.992;2023-02-28T09:00:06;6.03;;;4.80;;
1320;SDS011;653;51.480;11.992;2023-02-28T09:02:32;5.93;;;4.83;;
1320;SDS011;653;51.480;11.992;2023-02-28T09:04:58;5.33;;;4.50;;
1320;SDS011;653;51.480;11.992;2023-02-28T09:07:25;5.77;;;4.50;;
1320;SDS011;653;51.480;11.992;2023-02-28T09:09:51;9.00;;;5.33;;
1320;SDS011;653;51.480;11.992;2023-02-28T09:12:20;6.53;;;5.97;;
1320;SDS011;653;51.480;11.992;2023-02-28T09:14:48;6.17;;;5.57;;
1320;SDS011;653;51.480;11.992;2023-02-28T09:17:16;6.23;;;5.53;;
1320;SDS011;653;51.480;11.992;2023-02-28T09:19:41;9.20;;;5.77;;
1320;SDS011;653;51.480;11.992;2023-02-28T09:22:08;6.30;;;5.43;;
1320;SDS011;653;51.480;11.992;2023-02-28T09:24:36;5.70;;;4.70;;
1320;SDS011;653;51.480;11.992;2023-02-28T09:27:05;6.90;;;5.00;;
1320;SDS011;653;51.480;11.992;2023-02-28T09:29:32;7.60;;;5.10;;
1320;SDS011;653;51.480;11.992;2023-02-28T09:32:00;5.13;;;4.63;;
1320;SDS011;653;51.480;11.992;2023-02-28T09:34:27;7.47;;;5.33;;
1320;SDS011;653;51.480;11.992;2023-02-28T09:36:56;6.30;;;5.60;;
1320;SDS011;653;51.480;11.992;2023-02-28T09:39:21;8.20;;;5.80;;
1320;SDS011;653;51.480;11.992;2023-02-28T09:41:48;7.47;;;6.10;;
1320;SDS011;653;51.480;11.992;2023-02-28T09:44:39;5.93;;;5.30;;
1320;SDS011;653;51.480;11.992;2023-02-28T09:50:01;5.63;;;5.13;;
1320;SDS011;653;51.480;11.992;2023-02-28T09:52:38;4.83;;;3.80;;
1320;SDS011;653;51.480;11.992;2023-02-28T09:58:04;4.43;;;4.00;;
1320;SDS011;653;51.480;11.992;2023-02-28T10:00:36;5.27;;;3.90;;
1320;SDS011;653;51.480;11.992;2023-02-28T10:11:39;6.67;;;4.43;;
1320;SDS011;653;51.480;11.992;2023-02-28T10:14:12;6.60;;;5.40;;
1320;SDS011;653;51.480;11.992;2023-02-28T10:16:55;5.13;;;4.30;;
1320;SDS011;653;51.480;11.992;2023-02-28T10:22:17;5.33;;;4.70;;
1320;SDS011;653;51.480;11.992;2023-02-28T10:24:49;6.90;;;5.30;;
1320;SDS011;653;51.480;11.992;2023-02-28T10:27:28;6.63;;;4.40;;
1320;SDS011;653;51.480;11.992;2023-02-28T10:29:57;5.67;;;4.77;;
1320;SDS011;653;51.480;11.992;2023-02-28T10:32:35;5.07;;;4.50;;
1320;SDS011;653;51.480;11.992;2023-02-28T10:37:46;5.40;;;4.70;;
1320;SDS011;653;51.480;11.992;2023-02-28T10:45:33;5.17;;;4.67;;
1320;SDS011;653;51.480;11.992;2023-02-28T10:48:06;7.30;;;5.87;;
1320;SDS011;653;51.480;11.992;2023-02-28T10:50:52;7.37;;;6.10;;
1320;SDS011;653;51.480;11.992;2023-02-28T10:53:56;6.53;;;5.60;;
1320;SDS011;653;51.480;11.992;2023-02-28T10:56:22;5.70;;;4.77;;
1320;SDS011;653;51.480;11.992;2023-02-28T10:59:00;7.87;;;5.30;;
1320;SDS011;653;51.480;11.992;2023-02-28T11:01:45;8.67;;;6.00;;
1320;SDS011;653;51.480;11.992;2023-02-28T11:04:34;8.83;;;5.37;;
1320;SDS011;653;51.480;11.992;2023-02-28T11:07:18;8.13;;;5.60;;
1320;SDS011;653;51.480;11.992;2023-02-28T11:09:48;5.90;;;5.30;;
1320;SDS011;653;51.480;11.992;2023-02-28T11:14:53;8.60;;;5.23;;
1320;SDS011;653;51.480;11.992;2023-02-28T11:17:28;6.70;;;6.00;;
1320;SDS011;653;51.480;11.992;2023-02-28T11:20:04;7.57;;;5.93;;
1320;SDS011;653;51.480;11.992;2023-02-28T11:22:37;6.50;;;5.80;;
1320;SDS011;653;51.480;11.992;2023-02-28T11:25:16;9.13;;;5.70;;
1320;SDS011;653;51.480;11.992;2023-02-28T11:27:47;9.57;;;6.80;;
1320;SDS011;653;51.480;11.992;2023-02-28T11:30:27;6.77;;;5.83;;
1320;SDS011;653;51.480;11.992;2023-02-28T11:33:23;5.93;;;5.37;;
1320;SDS011;653;51.480;11.992;2023-02-28T11:36:01;6.77;;;6.00;;
1320;SDS011;653;51.480;11.992;2023-02-28T11:38:31;8.37;;;6.13;;
1320;SDS011;653;51.480;11.992;2023-02-28T11:41:20;8.07;;;5.57;;
1320;SDS011;653;51.480;11.992;2023-02-28T11:44:03;6.17;;;5.57;;
1320;SDS011;653;51.480;11.992;2023-02-28T11:46:50;9.00;;;7.63;;
1320;SDS011;653;51.480;11.992;2023-02-28T11:49:32;7.53;;;6.93;;
1320;SDS011;653;51.480;11.992;2023-02-28T12:06:50;6.57;;;5.80;;
1320;SDS011;653;51.480;11.992;2023-02-28T12:15:36;7.03;;;6.33;;
1320;SDS011;653;51.480;11.992;2023-02-28T12:23:54;13.57;;;6.53;;
1320;SDS011;653;51.480;11.992;2023-02-28T12:29:13;8.93;;;6.63;;
1320;SDS011;653;51.480;11.992;2023-02-28T12:34:52;6.50;;;5.83;;
1320;SDS011;653;51.480;11.992;2023-02-28T12:37:33;7.00;;;6.10;;
1320;SDS011;653;51.480;11.992;2023-02-28T12:40:21;6.80;;;6.10;;
1320;SDS011;653;51.480;11.992;2023-02-28T12:43:05;6.53;;;5.83;;
1320;SDS011;653;51.480;11.992;2023-02-28T12:48:52;5.90;;;5.40;;
1320;SDS011;653;51.480;11.992;2023-02-28T12:51:21;6.97;;;5.63;;
1320;SDS011;653;51.480;11.992;2023-02-28T12:56:42;7.17;;;6.00;;
1320;SDS011;653;51.480;11.992;2023-02-28T13:05:06;7.77;;;6.20;;
1320;SDS011;653;51.480;11.992;2023-02-28T13:10:59;8.87;;;8.00;;
1320;SDS011;653;51.480;11.992;2023-02-28T13:13:28;10.30;;;7.00;;
1320;SDS011;653;51.480;11.992;2023-02-28T13:15:58;9.10;;;7.33;;
1320;SDS011;653;51.480;11.992;2023-02-28T13:21:22;7.63;;;6.73;;
1320;SDS011;653;51.480;11.992;2023-02-28T13:34:38;8.17;;;6.50;;
1320;SDS011;653;51.480;11.992;2023-02-28T13:42:35;8.17;;;7.10;;
1320;SDS011;653;51.480;11.992;2023-02-28T13:45:21;8.73;;;7.33;;
1320;SDS011;653;51.480;11.992;2023-02-28T13:48:00;9.17;;;7.57;;
1320;SDS011;653;51.480;11.992;2023-02-28T13:50:41;9.67;;;7.37;;
1320;SDS011;653;51.480;11.992;2023-02-28T14:01:42;11.10;;;7.53;;
1320;SDS011;653;51.480;11.992;2023-02-28T14:04:46;10.10;;;7.23;;
1320;SDS011;653;51.480;11.992;2023-02-28T14:07:24;7.90;;;7.10;;
1320;SDS011;653;51.480;11.992;2023-02-28T14:09:56;9.70;;;6.70;;
1320;SDS011;653;51.480;11.992;2023-02-28T14:18:03;8.13;;;7.33;;
1320;SDS011;653;51.480;11.992;2023-02-28T14:20:37;9.40;;;7.17;;
1320;SDS011;653;51.480;11.992;2023-02-28T14:26:13;7.50;;;6.17;;
1320;SDS011;653;51.480;11.992;2023-02-28T14:37:49;7.70;;;5.90;;
1320;SDS011;653;51.480;11.992;2023-02-28T14:40:16;6.63;;;6.00;;
1320;SDS011;653;51.480;11.992;2023-02-28T14:42:47;6.87;;;6.17;;
1320;SDS011;653;51.480;11.992;2023-02-28T14:45:21;8.73;;;6.90;;
1320;SDS011;653;51.480;11.992;2023-02-28T14:47:49;7.07;;;6.37;;
1320;SDS011;653;51.480;11.992;2023-02-28T14:50:20;10.90;;;7.03;;
1320;SDS011;653;51.480;11.992;2023-02-28T14:52:56;7.27;;;6.60;;
1320;SDS011;653;51.480;11.992;2023-02-28T14:55:24;7.27;;;6.03;;
1320;SDS011;653;51.480;11.992;2023-02-28T14:57:53;6.77;;;6.03;;
1320;SDS011;653;51.480;11.992;2023-02-28T15:00:30;6.50;;;5.90;;
1320;SDS011;653;51.480;11.992;2023-02-28T15:02:58;8.20;;;7.10;;
1320;SDS011;653;51.480;11.992;2023-02-28T15:05:34;6.70;;;6.10;;
1320;SDS011;653;51.480;11.992;2023-02-28T15:08:11;7.47;;;6.40;;
1320;SDS011;653;51.480;11.992;2023-02-28T15:10:42;9.00;;;6.80;;
1320;SDS011;653;51.480;11.992;2023-02-28T15:13:14;7.13;;;6.43;;
1320;SDS011;653;51.480;11.992;2023-02-28T15:15:57;7.47;;;6.60;;
1320;SDS011;653;51.480;11.992;2023-02-28T15:21:14;7.90;;;7.10;;
1320;SDS011;653;51.480;11.992;2023-02-28T15:23:44;7.97;;;7.27;;
1320;SDS011;653;51.480;11.992;2023-02-28T15:26:14;7.70;;;6.63;;
1320;SDS011;653;51.480;11.992;2023-02-28T15:28:43;7.70;;;6.90;;
1320;SDS011;653;51.480;11.992;2023-02-28T15:31:19;6.87;;;6.17;;
1320;SDS011;653;51.480;11.992;2023-02-28T15:33:56;7.37;;;6.67;;
1320;SDS011;653;51.480;11.992;2023-02-28T15:36:29;8.73;;;7.83;;
1320;SDS011;653;51.480;11.992;2023-02-28T15:39:00;7.83;;;6.93;;
1320;SDS011;653;51.480;11.992;2023-02-28T15:41:36;9.83;;;7.40;;
1320;SDS011;653;51.480;11.992;2023-02-28T15:44:15;7.33;;;6.63;;
1320;SDS011;653;51.480;11.992;2023-02-28T15:47:07;7.43;;;6.83;;
1320;SDS011;653;51.480;11.992;2023-02-28T15:49:57;8.30;;;7.03;;
1320;SDS011;653;51.480;11.992;2023-02-28T15:52:44;8.23;;;7.40;;
1320;SDS011;653;51.480;11.992;2023-02-28T15:55:16;8.97;;;7.90;;
1320;SDS011;653;51.480;11.992;2023-02-28T15:57:48;8.27;;;7.37;;
1320;SDS011;653;51.480;11.992;2023-02-28T16:00:19;12.47;;;7.57;;
1320;SDS011;653;51.480;11.992;2023-02-28T16:02:50;8.50;;;7.73;;
1320;SDS011;653;51.480;11.992;2023-02-28T16:08:11;10.07;;;7.47;;
1320;SDS011;653;51.480;11.992;2023-02-28T16:10:41;8.23;;;7.43;;
1320;SDS011;653;51.480;11.992;2023-02-28T16:13:14;8.17;;;7.40;;
1320;SDS011;653;51.480;11.992;2023-02-28T16:15:42;11.57;;;7.90;;
1320;SDS011;653;51.480;11.992;2023-02-28T16:18:09;12.40;;;8.80;;
1320;SDS011;653;51.480;11.992;2023-02-28T16:20:37;10.77;;;7.87;;
1320;SDS011;653;51.480;11.992;2023-02-28T16:23:04;8.43;;;7.63;;
1320;SDS011;653;51.480;11.992;2023-02-28T16:25:34;12.87;;;7.93;;
1320;SDS011;653;51.480;11.992;2023-02-28T16:28:02;8.83;;;7.43;;
1320;SDS011;653;51.480;11.992;2023-02-28T16:30:28;9.87;;;8.37;;
1320;SDS011;653;51.480;11.992;2023-02-28T16:32:58;9.30;;;8.13;;
1320;SDS011;653;51.480;11.992;2023-02-28T16:35:27;14.13;;;9.40;;
1320;SDS011;653;51.480;11.992;2023-02-28T16:37:54;13.90;;;9.10;;
1320;SDS011;653;51.480;11.992;2023-02-28T16:40:20;10.90;;;8.67;;
1320;SDS011;653;51.480;11.992;2023-02-28T16:42:53;10.47;;;9.00;;
1320;SDS011;653;51.480;11.992;2023-02-28T16:45:27;10.03;;;8.80;;
1320;SDS011;653;51.480;11.992;2023-02-28T16:48:04;14.27;;;9.57;;
1320;SDS011;653;51.480;11.992;2023-02-28T16:50:29;9.87;;;8.43;;
1320;SDS011;653;51.480;11.992;2023-02-28T16:52:59;10.33;;;9.23;;
1320;SDS011;653;51.480;11.992;2023-02-28T16:55:25;11.43;;;9.33;;
1320;SDS011;653;51.480;11.992;2023-02-28T16:57:52;11.57;;;9.90;;
1320;SDS011;653;51.480;11.992;2023-02-28T17:00:20;13.13;;;9.50;;
1320;SDS011;653;51.480;11.992;2023-02-28T17:02:47;13.67;;;10.70;;
1320;SDS011;653;51.480;11.992;2023-02-28T17:05:14;19.67;;;11.70;;
1320;SDS011;653;51.480;11.992;2023-02-28T17:07:46;19.67;;;11.30;;
1320;SDS011;653;51.480;11.992;2023-02-28T17:10:22;36.53;;;15.10;;
1320;SDS011;653;51.480;11.992;2023-02-28T17:12:51;22.90;;;12.63;;
1320;SDS011;653;51.480;11.992;2023-02-28T17:15:18;32.73;;;14.00;;
1320;SDS011;653;51.480;11.992;2023-02-28T17:17:46;38.33;;;17.53;;
1320;SDS011;653;51.480;11.992;2023-02-28T17:20:18;20.50;;;11.80;;
1320;SDS011;653;51.480;11.992;2023-02-28T17:22:49;19.43;;;11.80;;
1320;SDS011;653;51.480;11.992;2023-02-28T17:25:19;35.23;;;18.07;;
1320;SDS011;653;51.480;11.992;2023-02-28T17:27:47;60.03;;;24.47;;
1320;SDS011;653;51.480;11.992;2023-02-28T17:30:17;77.17;;;27.60;;
1320;SDS011;653;51.480;11.992;2023-02-28T17:32:50;51.73;;;21.90;;
1320;SDS011;653;51.480;11.992;2023-02-28T17:35:16;54.27;;;22.83;;
1320;SDS011;653;51.480;11.992;2023-02-28T17:37:43;47.33;;;21.20;;
1320;SDS011;653;51.480;11.992;2023-02-28T17:40:19;46.17;;;20.73;;
1320;SDS011;653;51.480;11.992;2023-02-28T17:42:48;34.87;;;18.20;;
1320;SDS011;653;51.480;11.992;2023-02-28T17:45:15;40.20;;;21.10;;
1320;SDS011;653;51.480;11.992;2023-02-28T17:47:43;43.87;;;20.87;;
1320;SDS011;653;51.480;11.992;2023-02-28T17:50:21;32.17;;;17.37;;
1320;SDS011;653;51.480;11.992;2023-02-28T17:52:48;32.73;;;18.47;;
1320;SDS011;653;51.480;11.992;2023-02-28T17:55:17;32.43;;;18.37;;
1320;SDS011;653;51.480;11.992;2023-02-28T17:57:45;35.50;;;19.50;;
1320;SDS011;653;51.480;11.992;2023-02-28T18:00:12;19.30;;;13.53;;
1320;SDS011;653;51.480;11.992;2023-02-28T18:02:40;21.47;;;13.10;;
1320;SDS011;653;51.480;11.992;2023-02-28T18:05:11;25.63;;;14.70;;
1320;SDS011;653;51.480;11.992;2023-02-28T18:07:38;17.83;;;13.70;;
1320;SDS011;653;51.480;11.992;2023-02-28T18:10:05;20.10;;;12.33;;
1320;SDS011;653;51.480;11.992;2023-02-28T18:12:35;18.50;;;14.20;;
1320;SDS011;653;51.480;11.992;2023-02-28T18:15:00;21.30;;;13.53;;
1320;SDS011;653;51.480;11.992;2023-02-28T18:17:28;19.40;;;13.33;;